Time;durP1;ratioP1;P1;durP2;ratioP2;P2;SDS_P1;SDS_P2;PMS_P1;PMS_P2;Temp;Humidity;BMP_temperature;BMP_pressure;BME280_temperature;BME280_humidity;BME280_pressure;Samples;Min_cycle;Max_cycle;Signal;HPM_P1;HPM_P2
2021/06/25 00:02:02;;;;;;;2.88;2.67;;;20.60;59.60;;;;;;5053337;28;20171;-66
2021/06/25 00:04:28;;;;;;;2.38;2.22;;;20.60;59.50;;;;;;5053212;28;20215;-66
2021/06/25 00:06:53;;;;;;;2.47;2.30;;;20.60;59.60;;;;;;5052158;28;20172;-66
2021/06/25 00:09:19;;;;;;;2.78;2.47;;;20.60;59.50;;;;;;5053093;28;20186;-66
2021/06/25 00:11:44;;;;;;;2.58;2.42;;;20.60;59.50;;;;;;5052921;28;20220;-67
2021/06/25 00:14:10;;;;;;;2.78;2.58;;;20.60;59.50;;;;;;5052264;28;20207;-66
2021/06/25 00:16:35;;;;;;;2.50;2.40;;;20.60;59.50;;;;;;5052911;28;20182;-67
2021/06/25 00:19:01;;;;;;;2.75;2.40;;;20.60;59.50;;;;;;5052898;28;20541;-66
2021/06/25 00:21:26;;;;;;;2.88;2.67;;;20.60;59.40;;;;;;5052115;28;20175;-65
2021/06/25 00:23:52;;;;;;;2.47;2.38;;;20.60;59.40;;;;;;5052380;28;20206;-66
2021/06/25 00:26:17;;;;;;;2.42;2.28;;;20.60;59.40;;;;;;5052328;28;20881;-65
2021/06/25 00:28:43;;;;;;;2.78;2.58;;;20.60;59.50;;;;;;5052335;28;20304;-66
2021/06/25 00:31:08;;;;;;;2.50;2.30;;;20.60;59.30;;;;;;5052763;28;20229;-65
2021/06/25 00:33:34;;;;;;;2.40;2.30;;;20.60;59.40;;;;;;5051742;28;20225;-66
2021/06/25 00:35:59;;;;;;;2.58;2.40;;;20.50;59.30;;;;;;5052440;28;20171;-67
2021/06/25 00:38:25;;;;;;;2.42;2.22;;;20.60;59.50;;;;;;5052566;28;20264;-67
2021/06/25 00:40:50;;;;;;;2.58;2.38;;;20.60;59.40;;;;;;5051767;28;20175;-67
2021/06/25 00:43:16;;;;;;;2.47;2.28;;;20.50;59.20;;;;;;5052330;28;20510;-67
2021/06/25 00:45:41;;;;;;;2.55;2.35;;;20.60;59.30;;;;;;5052404;28;20216;-66
2021/06/25 00:48:07;;;;;;;2.80;2.60;;;20.50;59.30;;;;;;5051830;28;20202;-66
2021/06/25 00:50:34;;;;;;;2.25;2.15;;;20.50;59.30;;;;;;5052060;28;20584;-66
2021/06/25 00:53:00;;;;;;;2.20;2.10;;;20.50;59.30;;;;;;5052469;28;20195;-66
2021/06/25 00:55:26;;;;;;;2.35;2.22;;;20.50;59.30;;;;;;5051450;28;20660;-66
2021/06/25 00:57:52;;;;;;;2.60;2.40;;;20.50;59.30;;;;;;5052037;28;20186;-66
2021/06/25 01:00:18;;;;;;;3.58;2.60;;;20.50;59.30;;;;;;5052337;28;20641;-66
2021/06/25 01:02:43;;;;;;;2.67;2.47;;;20.50;59.30;;;;;;5033330;28;20287;-66
2021/06/25 01:05:09;;;;;;;2.53;2.33;;;20.50;59.30;;;;;;5052103;28;20248;-66
2021/06/25 01:07:35;;;;;;;2.40;2.30;;;20.50;59.20;;;;;;5051718;28;20205;-66
2021/06/25 01:10:05;;;;;;;2.70;2.50;;;20.50;59.30;;;;;;5051551;28;20175;-66
2021/06/25 01:12:30;;;;;;;2.40;2.20;;;20.50;59.30;;;;;;5051740;28;20509;-67
2021/06/25 01:14:56;;;;;;;2.60;2.50;;;20.50;59.20;;;;;;5034160;28;20210;-66
2021/06/25 01:17:35;;;;;;;2.53;2.25;;;20.50;59.30;;;;;;5051459;28;20199;-66
2021/06/25 01:20:04;;;;;;;2.40;2.30;;;20.50;59.30;;;;;;5051789;28;20633;-65
2021/06/25 01:22:39;;;;;;;2.50;2.30;;;20.50;59.30;;;;;;5051402;28;20187;-65
2021/06/25 01:25:24;;;;;;;2.45;2.25;;;20.50;59.30;;;;;;5051906;28;20228;-65
2021/06/25 01:27:51;;;;;;;2.47;2.28;;;20.50;59.20;;;;;;5051308;28;20183;-65
2021/06/25 01:30:19;;;;;;;2.28;2.17;;;20.40;59.20;;;;;;5050979;28;20186;-65
2021/06/25 01:32:44;;;;;;;2.83;2.63;;;20.40;59.20;;;;;;5051249;28;20168;-66
2021/06/25 01:35:10;;;;;;;2.63;2.42;;;20.40;59.30;;;;;;5051629;28;20222;-67
2021/06/25 01:37:36;;;;;;;2.60;2.45;;;20.40;59.20;;;;;;5050658;28;20178;-67
2021/06/25 01:40:01;;;;;;;2.50;2.40;;;20.40;59.20;;;;;;5051715;28;20269;-67
2021/06/25 01:42:28;;;;;;;2.40;2.30;;;20.40;59.20;;;;;;5051419;28;20177;-66
2021/06/25 01:44:53;;;;;;;2.58;2.47;;;20.40;59.30;;;;;;5016411;28;20258;-67
2021/06/25 01:47:19;;;;;;;2.50;2.30;;;20.40;59.30;;;;;;5033511;28;20201;-66
2021/06/25 01:49:44;;;;;;;2.50;2.10;;;20.40;59.20;;;;;;5051268;28;20263;-65
2021/06/25 01:52:17;;;;;;;2.72;2.53;;;20.40;59.20;;;;;;5050841;28;20545;-66
2021/06/25 01:54:43;;;;;;;2.67;2.55;;;20.40;59.20;;;;;;5051131;28;20214;-66
2021/06/25 01:57:08;;;;;;;2.60;2.50;;;20.40;59.20;;;;;;5051476;28;20179;-66
2021/06/25 01:59:34;;;;;;;2.90;2.70;;;20.40;59.20;;;;;;5050204;28;20261;-66
2021/06/25 02:01:59;;;;;;;2.50;2.40;;;20.40;59.20;;;;;;5033355;28;20720;-66
2021/06/25 02:04:25;;;;;;;2.40;2.30;;;20.40;59.40;;;;;;5051475;28;20175;-66
2021/06/25 02:06:50;;;;;;;2.83;2.42;;;20.40;59.50;;;;;;5050392;28;20167;-66
2021/06/25 02:09:16;;;;;;;3.25;2.97;;;20.40;59.50;;;;;;5051384;28;20171;-66
2021/06/25 02:11:41;;;;;;;2.55;2.35;;;20.30;59.40;;;;;;5050904;28;20514;-66
2021/06/25 02:14:07;;;;;;;2.65;2.55;;;20.30;59.30;;;;;;5050446;28;20216;-66
2021/06/25 02:16:32;;;;;;;2.78;2.58;;;20.30;59.20;;;;;;5051437;28;20179;-66
2021/06/25 02:18:58;;;;;;;2.60;2.40;;;20.30;59.20;;;;;;5054703;28;20178;-66
2021/06/25 02:21:23;;;;;;;2.90;2.70;;;20.30;59.30;;;;;;5055079;28;20562;-65
2021/06/25 02:23:49;;;;;;;2.90;2.70;;;20.30;59.40;;;;;;5055036;28;20183;-65
2021/06/25 02:26:14;;;;;;;2.60;2.40;;;20.30;59.30;;;;;;5036496;28;20512;-65
2021/06/25 02:28:40;;;;;;;3.10;2.90;;;20.30;59.10;;;;;;5054585;28;20235;-65
2021/06/25 02:31:05;;;;;;;2.47;2.28;;;20.30;59.20;;;;;;5054895;28;20171;-65
2021/06/25 02:33:31;;;;;;;2.97;2.78;;;20.30;59.20;;;;;;5054192;28;20294;-66
2021/06/25 02:35:56;;;;;;;2.72;2.53;;;20.30;59.10;;;;;;5054947;28;20299;-67
2021/06/25 02:38:22;;;;;;;2.75;2.63;;;20.30;59.10;;;;;;5054780;28;20186;-67
2021/06/25 02:40:47;;;;;;;2.80;2.60;;;20.30;59.10;;;;;;5053863;28;20216;-67
2021/06/25 02:43:13;;;;;;;2.65;2.45;;;20.30;59.10;;;;;;5054802;28;20258;-66
2021/06/25 02:45:38;;;;;;;2.35;2.25;;;20.30;59.10;;;;;;5054332;28;20625;-65
2021/06/25 02:48:05;;;;;;;3.13;2.55;;;20.30;59.10;;;;;;5053917;28;20225;-66
2021/06/25 02:50:30;;;;;;;2.53;2.38;;;20.30;59.20;;;;;;5054524;28;20181;-65
2021/06/25 02:52:56;;;;;;;2.88;2.70;;;20.30;59.20;;;;;;5054774;28;20645;-66
2021/06/25 02:55:21;;;;;;;3.38;2.65;;;20.30;59.20;;;;;;5053849;28;20213;-66
2021/06/25 02:57:47;;;;;;;2.78;2.60;;;20.30;59.20;;;;;;5054144;28;20175;-66
2021/06/25 03:00:14;;;;;;;2.40;2.30;;;20.20;59.10;;;;;;5054483;28;20275;-66
2021/06/25 03:02:40;;;;;;;2.95;2.75;;;20.20;59.20;;;;;;5053662;28;20187;-66
2021/06/25 03:05:07;;;;;;;2.97;2.78;;;20.20;59.10;;;;;;5054550;28;20241;-66
2021/06/25 03:07:32;;;;;;;2.78;2.58;;;20.20;59.10;;;;;;5053975;28;20176;-66
2021/06/25 03:09:58;;;;;;;2.65;2.45;;;20.20;59.10;;;;;;5053485;28;20186;-65
2021/06/25 03:12:24;;;;;;;2.80;2.50;;;20.20;59.10;;;;;;5054158;28;20171;-66
2021/06/25 03:14:49;;;;;;;2.38;2.17;;;20.20;59.10;;;;;;5053751;28;20272;-66
2021/06/25 03:17:15;;;;;;;3.00;2.72;;;20.20;59.10;;;;;;5053460;28;20167;-66
2021/06/25 03:19:40;;;;;;;2.80;2.60;;;20.20;59.10;;;;;;5053980;28;20545;-65
2021/06/25 03:22:06;;;;;;;2.28;2.17;;;20.20;59.10;;;;;;5053450;28;20586;-65
2021/06/25 03:24:31;;;;;;;2.40;2.20;;;20.20;59.20;;;;;;5053709;28;20182;-65
2021/06/25 03:26:57;;;;;;;2.30;2.10;;;20.20;59.10;;;;;;5054003;28;20191;-65
2021/06/25 03:29:22;;;;;;;2.65;2.45;;;20.20;59.10;;;;;;5051788;28;20231;-65
2021/06/25 03:31:48;;;;;;;2.33;2.22;;;20.20;59.10;;;;;;5053491;28;20233;-65
2021/06/25 03:34:13;;;;;;;2.75;2.65;;;20.20;59.10;;;;;;5053987;28;20207;-66
2021/06/25 03:36:39;;;;;;;4.07;2.50;;;20.20;59.10;;;;;;5052711;28;20502;-67
2021/06/25 03:39:05;;;;;;;2.53;2.42;;;20.20;59.10;;;;;;5053890;28;20182;-67
2021/06/25 03:41:30;;;;;;;2.70;2.50;;;20.10;59.00;;;;;;5053463;28;20164;-67
2021/06/25 03:43:56;;;;;;;1.92;1.83;;;20.20;59.10;;;;;;5052841;28;20513;-66
2021/06/25 03:46:22;;;;;;;2.75;2.55;;;20.20;59.00;;;;;;5053845;28;20182;-66
2021/06/25 03:48:49;;;;;;;2.40;2.30;;;20.20;59.00;;;;;;5053346;28;20182;-66
2021/06/25 03:51:14;;;;;;;2.60;2.40;;;20.20;58.90;;;;;;5052978;28;20171;-66
2021/06/25 03:53:40;;;;;;;2.42;2.33;;;20.10;58.80;;;;;;5053301;28;20234;-65
2021/06/25 03:56:11;;;;;;;2.85;2.65;;;20.20;58.90;;;;;;5053491;28;20182;-66
2021/06/25 03:58:42;;;;;;;2.55;2.45;;;20.20;58.90;;;;;;5052411;28;20358;-66
2021/06/25 04:01:08;;;;;;;2.67;2.50;;;20.20;58.80;;;;;;5053510;28;20534;-66
2021/06/25 04:03:34;;;;;;;2.28;2.17;;;20.10;58.70;;;;;;5053501;28;20262;-66
2021/06/25 04:05:59;;;;;;;2.40;2.30;;;20.20;58.70;;;;;;5052861;28;20171;-66
2021/06/25 04:08:27;;;;;;;2.30;2.20;;;20.20;58.70;;;;;;5053482;28;20175;-66
2021/06/25 04:10:53;;;;;;;2.58;2.47;;;20.20;58.60;;;;;;5052990;28;20171;-66
2021/06/25 04:13:18;;;;;;;4.07;2.83;;;20.20;58.60;;;;;;5052485;28;20171;-67
2021/06/25 04:15:44;;;;;;;3.50;2.70;;;20.20;58.60;;;;;;5053301;28;20179;-66
2021/06/25 04:18:10;;;;;;;2.55;2.35;;;20.20;58.60;;;;;;5053391;28;20197;-66
2021/06/25 04:20:35;;;;;;;2.85;2.25;;;20.20;58.50;;;;;;5052181;28;20547;-66
2021/06/25 04:23:00;;;;;;;2.38;2.28;;;20.20;58.40;;;;;;5052862;28;20700;-65
2021/06/25 04:25:26;;;;;;;2.90;2.70;;;20.20;58.40;;;;;;5052342;28;20189;-65
2021/06/25 04:27:53;;;;;;;2.38;2.28;;;20.30;58.30;;;;;;5052294;28;20171;-65
2021/06/25 04:30:19;;;;;;;2.60;2.50;;;20.20;58.20;;;;;;5053048;28;20258;-65
2021/06/25 04:32:45;;;;;;;2.75;2.60;;;20.30;58.20;;;;;;5051848;28;20289;-66
2021/06/25 04:35:11;;;;;;;2.92;2.72;;;20.30;58.10;;;;;;5052784;28;20219;-66
2021/06/25 04:37:36;;;;;;;3.25;2.95;;;20.30;58.10;;;;;;5052403;28;20641;-67
2021/06/25 04:40:02;;;;;;;2.80;2.60;;;20.30;58.10;;;;;;5051817;28;20214;-66
2021/06/25 04:42:28;;;;;;;2.53;2.33;;;20.30;58.10;;;;;;5052508;28;20270;-66
2021/06/25 04:44:53;;;;;;;2.75;2.55;;;20.30;58.00;;;;;;5034663;28;20224;-65
2021/06/25 04:47:18;;;;;;;2.85;2.65;;;20.40;58.00;;;;;;5051920;28;20175;-66
2021/06/25 04:49:44;;;;;;;2.58;2.38;;;20.40;58.00;;;;;;5052086;28;20175;-65
2021/06/25 04:52:09;;;;;;;2.53;2.30;;;20.30;58.10;;;;;;5052416;28;20621;-65
2021/06/25 04:54:35;;;;;;;2.90;2.60;;;20.30;58.00;;;;;;5051281;28;20564;-65
2021/06/25 04:57:01;;;;;;;2.85;2.65;;;20.30;58.10;;;;;;5052385;28;20649;-66
2021/06/25 04:59:29;;;;;;;2.80;2.60;;;20.30;58.10;;;;;;5052448;28;20633;-66
2021/06/25 05:01:54;;;;;;;3.25;2.95;;;20.40;58.20;;;;;;5051402;28;20510;-65
2021/06/25 05:04:20;;;;;;;2.60;2.40;;;20.30;58.10;;;;;;5052422;28;20175;-65
2021/06/25 05:06:47;;;;;;;2.40;2.30;;;20.30;58.10;;;;;;5051602;28;20634;-66
2021/06/25 05:09:13;;;;;;;3.58;2.35;;;20.30;58.10;;;;;;5051357;28;20186;-65
2021/06/25 05:11:39;;;;;;;2.58;2.38;;;20.40;58.20;;;;;;5051614;28;20183;-66
2021/06/25 05:14:04;;;;;;;2.60;2.40;;;20.40;58.20;;;;;;5052264;28;20546;-66
2021/06/25 05:16:30;;;;;;;2.78;2.58;;;20.40;58.10;;;;;;5051162;28;20179;-66
2021/06/25 05:18:55;;;;;;;2.65;2.50;;;20.40;58.10;;;;;;5052040;28;20225;-66
2021/06/25 05:21:21;;;;;;;2.83;2.20;;;20.40;58.20;;;;;;5051948;28;20171;-65
2021/06/25 05:23:46;;;;;;;2.53;2.00;;;20.40;58.10;;;;;;5050878;28;20171;-65
2021/06/25 05:26:12;;;;;;;2.65;2.50;;;20.40;58.10;;;;;;5051759;28;20175;-65
2021/06/25 05:28:38;;;;;;;2.45;2.28;;;20.40;58.20;;;;;;5051419;28;20227;-65
2021/06/25 05:31:04;;;;;;;2.40;2.30;;;20.40;58.20;;;;;;5051225;28;20178;-66
2021/06/25 05:33:29;;;;;;;2.45;2.35;;;20.40;58.20;;;;;;5051767;28;20175;-66
2021/06/25 05:35:55;;;;;;;2.55;2.33;;;20.30;58.20;;;;;;5050788;28;20630;-67
2021/06/25 05:38:20;;;;;;;2.72;2.53;;;20.30;58.30;;;;;;5051674;28;20175;-67
2021/06/25 05:40:46;;;;;;;2.45;2.33;;;20.30;58.30;;;;;;5051411;28;20171;-67
2021/06/25 05:43:11;;;;;;;2.90;2.70;;;20.30;58.30;;;;;;5050964;28;20201;-67
2021/06/25 05:45:37;;;;;;;2.20;2.10;;;20.30;58.40;;;;;;5051381;28;20630;-66
2021/06/25 05:48:03;;;;;;;2.10;2.00;;;20.30;58.40;;;;;;5051941;28;20178;-66
2021/06/25 05:50:29;;;;;;;2.47;2.28;;;20.40;58.40;;;;;;5050752;28;20181;-66
2021/06/25 05:52:55;;;;;;;2.15;2.05;;;20.40;58.40;;;;;;5050939;28;20183;-65
2021/06/25 05:55:20;;;;;;;2.88;2.00;;;20.30;58.30;;;;;;5051629;28;20207;-66
2021/06/25 05:57:47;;;;;;;2.83;2.63;;;20.40;58.30;;;;;;5050491;28;20197;-67
2021/06/25 06:00:13;;;;;;;2.85;2.65;;;20.40;58.20;;;;;;5051963;28;20252;-66
2021/06/25 06:02:39;;;;;;;2.80;2.60;;;20.40;58.30;;;;;;5051620;28;20209;-66
2021/06/25 06:05:05;;;;;;;2.45;2.35;;;20.40;58.20;;;;;;5051119;28;20171;-66
2021/06/25 06:07:30;;;;;;;3.40;2.70;;;20.40;58.20;;;;;;5051277;28;20215;-66
2021/06/25 06:09:56;;;;;;;2.35;2.17;;;20.40;58.30;;;;;;5051791;28;20313;-66
2021/06/25 06:12:21;;;;;;;2.10;2.00;;;20.40;58.20;;;;;;5051102;28;20175;-67
2021/06/25 06:14:48;;;;;;;3.05;2.78;;;20.40;58.20;;;;;;5051205;28;20509;-67
2021/06/25 06:17:15;;;;;;;2.30;2.20;;;20.40;58.20;;;;;;5051603;28;20179;-66
2021/06/25 06:19:43;;;;;;;2.30;2.20;;;20.50;58.30;;;;;;5050407;28;20183;-66
2021/06/25 06:33:18;;;;;;;4.85;3.55;;;20.50;58.30;;;;;;5051094;28;20175;-64
2021/06/25 06:35:43;;;;;;;5.18;2.92;;;20.50;58.40;;;;;;5051319;28;20199;-65
2021/06/25 06:38:09;;;;;;;4.05;2.90;;;20.60;58.40;;;;;;5033578;28;20170;-65
2021/06/25 06:40:35;;;;;;;3.33;2.70;;;20.60;58.40;;;;;;5050285;28;20183;-65
2021/06/25 06:43:00;;;;;;;4.88;2.60;;;20.50;58.50;;;;;;5050669;28;20245;-70
2021/06/25 06:45:26;;;;;;;8.00;3.17;;;20.60;58.50;;;;;;5051269;28;20190;-65
2021/06/25 06:47:52;;;;;;;6.00;2.60;;;20.60;58.60;;;;;;5049999;28;20203;-65
2021/06/25 06:50:17;;;;;;;5.80;2.30;;;20.60;58.50;;;;;;5050796;28;20638;-65
2021/06/25 06:52:50;;;;;;;2.63;2.42;;;20.60;58.50;;;;;;5050652;28;20179;-65
2021/06/25 06:55:18;;;;;;;5.38;2.25;;;20.60;58.50;;;;;;5049941;28;20308;-66
2021/06/25 06:57:44;;;;;;;7.03;2.25;;;20.60;58.50;;;;;;5050247;28;20237;-65
2021/06/25 07:00:10;;;;;;;2.53;2.33;;;20.60;58.50;;;;;;5050144;28;20219;-66
2021/06/25 07:02:37;;;;;;;7.13;2.50;;;20.50;58.40;;;;;;5051070;28;20536;-65
2021/06/25 07:05:03;;;;;;;2.50;2.30;;;20.60;58.60;;;;;;5054206;28;20613;-65
2021/06/25 07:07:29;;;;;;;4.03;2.55;;;20.60;58.50;;;;;;5053519;28;20250;-65
2021/06/25 07:09:55;;;;;;;3.83;2.30;;;20.60;58.60;;;;;;5054207;28;20167;-65
2021/06/25 07:12:21;;;;;;;3.65;2.28;;;20.60;58.50;;;;;;5053908;28;20660;-66
2021/06/25 07:14:46;;;;;;;2.88;2.40;;;20.60;58.40;;;;;;5053150;28;20215;-65
2021/06/25 07:17:12;;;;;;;2.42;2.22;;;20.60;58.40;;;;;;5054074;28;20182;-66
2021/06/25 07:19:37;;;;;;;3.85;2.70;;;20.60;58.30;;;;;;5053686;28;20171;-65
2021/06/25 07:22:03;;;;;;;6.30;2.58;;;20.70;58.40;;;;;;5053075;28;20578;-65
2021/06/25 07:24:28;;;;;;;2.80;2.60;;;20.70;58.30;;;;;;5053844;28;20210;-65
2021/06/25 07:26:54;;;;;;;3.17;2.88;;;20.70;58.40;;;;;;5053477;28;20183;-64
2021/06/25 07:29:19;;;;;;;3.90;2.40;;;20.60;58.30;;;;;;5052958;28;20561;-65
2021/06/25 07:31:45;;;;;;;2.95;2.63;;;20.70;58.30;;;;;;5053283;28;20168;-65
2021/06/25 07:34:10;;;;;;;4.53;2.78;;;20.80;58.20;;;;;;5053751;28;20207;-66
2021/06/25 07:36:36;;;;;;;6.13;2.60;;;20.80;58.10;;;;;;5052966;28;20175;-67
2021/06/25 07:39:01;;;;;;;2.60;2.40;;;20.80;58.10;;;;;;5053411;28;20228;-66
2021/06/25 07:41:27;;;;;;;3.40;2.28;;;20.80;58.20;;;;;;5053491;28;20614;-66
2021/06/25 07:43:52;;;;;;;2.35;2.15;;;20.80;58.20;;;;;;5052466;28;20210;-65
2021/06/25 07:46:18;;;;;;;4.57;2.40;;;20.80;58.20;;;;;;5053361;28;20180;-66
2021/06/25 07:48:43;;;;;;;2.92;2.55;;;20.80;58.20;;;;;;5053304;28;20218;-65
2021/06/25 07:51:09;;;;;;;2.65;2.38;;;20.80;58.20;;;;;;5052827;28;20167;-65
2021/06/25 07:53:34;;;;;;;3.28;2.38;;;20.80;58.20;;;;;;5053088;28;20626;-65
2021/06/25 07:56:00;;;;;;;2.53;2.30;;;20.80;58.20;;;;;;5053438;28;20183;-65
2021/06/25 07:58:25;;;;;;;3.17;2.60;;;20.80;58.20;;;;;;5052626;28;20175;-65
2021/06/25 08:00:51;;;;;;;3.25;2.25;;;20.80;58.20;;;;;;5053091;28;20179;-66
2021/06/25 08:03:16;;;;;;;2.65;2.30;;;20.80;58.30;;;;;;5053282;28;20225;-65
2021/06/25 08:05:42;;;;;;;2.65;2.30;;;20.80;58.30;;;;;;5052183;28;20179;-65
2021/06/25 08:08:08;;;;;;;2.53;2.33;;;20.80;58.30;;;;;;5053150;28;20205;-65
2021/06/25 08:10:34;;;;;;;4.10;2.67;;;20.80;58.40;;;;;;5052147;28;20555;-66
2021/06/25 08:13:00;;;;;;;2.92;2.60;;;20.80;58.40;;;;;;5053262;28;20294;-66
2021/06/25 08:15:25;;;;;;;2.65;2.38;;;20.80;58.40;;;;;;5052522;28;20298;-66
2021/06/25 08:17:51;;;;;;;5.03;2.80;;;20.80;58.40;;;;;;5052055;28;20270;-65
2021/06/25 08:20:16;;;;;;;2.83;2.42;;;20.80;58.40;;;;;;5053029;28;20240;-65
2021/06/25 08:22:42;;;;;;;3.20;2.80;;;20.80;58.40;;;;;;5052616;28;20534;-65
2021/06/25 08:25:07;;;;;;;2.72;2.53;;;20.70;58.40;;;;;;5052209;28;20518;-65
2021/06/25 08:27:33;;;;;;;3.95;2.80;;;20.70;58.40;;;;;;5052776;28;20194;-64
2021/06/25 08:30:00;;;;;;;3.40;2.78;;;20.70;58.60;;;;;;5052646;28;20223;-65
2021/06/25 08:32:25;;;;;;;3.13;2.83;;;20.80;58.40;;;;;;5052012;28;20252;-66
2021/06/25 08:34:51;;;;;;;3.05;2.78;;;20.70;58.30;;;;;;5052423;28;20219;-66
2021/06/25 08:37:16;;;;;;;3.33;3.03;;;20.70;58.30;;;;;;5052626;28;20183;-67
2021/06/25 08:39:42;;;;;;;2.97;2.67;;;20.70;58.30;;;;;;5051373;28;20183;-67
2021/06/25 08:42:08;;;;;;;3.75;2.92;;;20.70;58.30;;;;;;5052482;28;20543;-67
2021/06/25 08:44:42;;;;;;;3.45;3.15;;;20.70;58.40;;;;;;5052413;28;20179;-66
2021/06/25 08:47:08;;;;;;;3.53;3.20;;;20.70;58.30;;;;;;5051834;28;20257;-66
2021/06/25 08:49:35;;;;;;;3.50;3.20;;;20.60;58.40;;;;;;5052191;28;20203;-66
2021/06/25 08:52:00;;;;;;;3.72;2.92;;;20.70;58.40;;;;;;5052275;28;20171;-66
2021/06/25 08:54:26;;;;;;;5.07;3.13;;;20.60;58.40;;;;;;5051509;28;20220;-66
2021/06/25 08:56:51;;;;;;;4.85;3.42;;;20.60;58.40;;;;;;5052029;28;20250;-66
2021/06/25 08:59:20;;;;;;;3.30;3.00;;;20.70;58.40;;;;;;5052402;28;20657;-66
2021/06/25 09:01:47;;;;;;;3.70;3.40;;;20.60;58.40;;;;;;5051335;28;20268;-65
2021/06/25 09:04:29;;;;;;;3.80;3.50;;;20.70;58.40;;;;;;5052234;28;20597;-65
2021/06/25 09:06:55;;;;;;;4.22;3.83;;;20.70;58.30;;;;;;5051375;28;20685;-65
2021/06/25 09:09:21;;;;;;;4.47;3.90;;;20.70;58.30;;;;;;5052088;28;20262;-66
2021/06/25 09:11:57;;;;;;;4.57;4.00;;;20.70;58.20;;;;;;5051763;28;20203;-66
2021/06/25 09:14:23;;;;;;;4.07;3.78;;;20.70;58.30;;;;;;5018351;28;20220;-66
2021/06/25 09:16:49;;;;;;;5.53;3.85;;;20.70;58.20;;;;;;5051610;28;20530;-66
2021/06/25 09:19:16;;;;;;;4.78;4.28;;;20.70;58.20;;;;;;5051758;28;20562;-65
2021/06/25 09:22:01;;;;;;;5.25;4.57;;;20.70;58.20;;;;;;5050707;28;20177;-65
2021/06/25 09:24:27;;;;;;;4.95;4.47;;;20.70;58.20;;;;;;5051801;28;20260;-65
2021/06/25 09:27:08;;;;;;;5.35;4.53;;;20.70;58.20;;;;;;5050593;28;20209;-65
2021/06/25 09:29:40;;;;;;;5.22;4.50;;;20.70;58.20;;;;;;5050530;28;20322;-65
2021/06/25 09:32:07;;;;;;;4.50;4.10;;;20.70;58.20;;;;;;5051630;28;20514;-65
2021/06/25 09:34:35;;;;;;;5.03;4.60;;;20.70;58.30;;;;;;5051495;28;20214;-66
2021/06/25 09:37:01;;;;;;;5.22;4.72;;;20.70;58.30;;;;;;5050878;28;20175;-67
2021/06/25 09:39:27;;;;;;;6.80;4.75;;;20.70;58.30;;;;;;5051830;28;20255;-66
2021/06/25 09:41:52;;;;;;;4.65;4.25;;;20.70;58.30;;;;;;5050907;28;20630;-66
2021/06/25 09:44:18;;;;;;;5.43;4.85;;;20.70;58.30;;;;;;5051110;28;20233;-66
2021/06/25 09:46:45;;;;;;;5.40;4.90;;;20.70;58.30;;;;;;5051493;28;20183;-66
2021/06/25 09:49:12;;;;;;;6.70;5.03;;;20.70;58.20;;;;;;5050993;28;20190;-65
2021/06/25 09:51:38;;;;;;;6.55;5.32;;;20.70;58.20;;;;;;5051403;28;20221;-65
2021/06/25 09:54:15;;;;;;;6.05;5.45;;;20.70;58.30;;;;;;5051568;28;20294;-65
2021/06/25 10:00:08;;;;;;;7.25;5.82;;;20.70;58.10;;;;;;5051605;28;20257;-65
2021/06/25 10:02:18;;;;;;;6.38;5.25;;;20.80;58.10;;;;;;5048328;28;20206;-65
2021/06/25 10:04:44;;;;;;;5.82;5.32;;;20.80;58.10;;;;;;5050189;28;20736;-65
2021/06/25 10:07:20;;;;;;;6.25;5.38;;;20.80;58.20;;;;;;5051281;28;20258;-64
2021/06/25 10:09:48;;;;;;;6.65;5.85;;;20.80;58.20;;;;;;5050975;28;20727;-65
2021/06/25 10:12:15;;;;;;;5.70;5.20;;;20.80;58.20;;;;;;5050711;28;20191;-65
2021/06/25 10:14:41;;;;;;;6.72;5.95;;;20.80;58.20;;;;;;5050909;28;20214;-65
2021/06/25 10:17:08;;;;;;;6.95;5.97;;;20.80;58.20;;;;;;5050514;28;20175;-65
2021/06/25 10:19:38;;;;;;;6.28;5.78;;;20.80;58.00;;;;;;5050975;28;20186;-64
2021/06/25 10:22:03;;;;;;;6.57;5.97;;;20.90;58.00;;;;;;5051068;28;20634;-64
2021/06/25 10:24:31;;;;;;;7.15;6.07;;;21.00;58.00;;;;;;5016125;28;20210;-64
2021/06/25 10:26:56;;;;;;;7.50;6.70;;;21.00;57.80;;;;;;5033642;28;20183;-64
2021/06/25 10:29:22;;;;;;;6.72;6.10;;;21.00;57.70;;;;;;5016576;28;20562;-64
2021/06/25 10:31:47;;;;;;;6.80;6.10;;;21.10;57.70;;;;;;5015916;28;20179;-64
2021/06/25 10:34:13;;;;;;;7.28;6.55;;;21.10;57.70;;;;;;5016787;28;20210;-65
2021/06/25 10:36:38;;;;;;;7.00;6.30;;;21.10;57.80;;;;;;5050615;28;20198;-66
2021/06/25 10:39:11;;;;;;;8.15;6.80;;;21.00;57.80;;;;;;5053206;28;20527;-65
2021/06/25 10:41:50;;;;;;;7.00;6.35;;;21.00;57.90;;;;;;5036589;28;20183;-66
2021/06/25 10:44:36;;;;;;;6.63;6.03;;;21.00;57.90;;;;;;5054755;28;20598;-65
2021/06/25 10:47:18;;;;;;;6.82;6.22;;;21.00;57.90;;;;;;5054225;28;20160;-65
2021/06/25 10:49:58;;;;;;;7.88;7.13;;;21.00;57.90;;;;;;5054557;28;20582;-65
2021/06/25 10:52:24;;;;;;;8.07;6.95;;;21.00;57.90;;;;;;5035833;28;20183;-65
2021/06/25 10:55:06;;;;;;;7.13;6.53;;;21.00;58.00;;;;;;5036388;28;20211;-66
2021/06/25 10:57:33;;;;;;;7.90;7.10;;;21.00;58.10;;;;;;5054474;28;20179;-65
2021/06/25 10:59:58;;;;;;;7.57;6.93;;;20.90;58.20;;;;;;5053834;28;20178;-65
2021/06/25 11:02:43;;;;;;;7.80;7.10;;;20.90;58.20;;;;;;5054241;28;20181;-64
2021/06/25 11:05:21;;;;;;;7.35;6.65;;;20.90;58.40;;;;;;5054281;28;20174;-63
2021/06/25 11:07:46;;;;;;;8.23;7.20;;;20.80;58.40;;;;;;5053666;28;20175;-66
2021/06/25 11:10:17;;;;;;;8.07;6.90;;;20.80;58.40;;;;;;5054182;28;20228;-65
2021/06/25 11:12:42;;;;;;;7.88;6.95;;;20.80;58.40;;;;;;5020365;28;20183;-66
2021/06/25 11:15:09;;;;;;;8.93;8.05;;;20.90;58.30;;;;;;5053451;28;20653;-65
2021/06/25 11:17:54;;;;;;;10.23;9.23;;;21.00;58.30;;;;;;5053926;28;20171;-66
2021/06/25 11:20:35;;;;;;;10.00;9.10;;;20.90;58.10;;;;;;5053986;28;20186;-65
2021/06/25 11:23:19;;;;;;;9.90;8.98;;;20.90;58.00;;;;;;5054373;28;20186;-65
2021/06/25 11:25:55;;;;;;;10.68;9.35;;;21.00;58.00;;;;;;5053950;28;20179;-63
2021/06/25 11:28:25;;;;;;;12.25;9.23;;;21.00;58.00;;;;;;5053130;28;20673;-63
2021/06/25 11:30:50;;;;;;;9.43;8.45;;;21.00;58.00;;;;;;5053929;28;20220;-63
2021/06/25 11:33:29;;;;;;;10.38;8.27;;;21.10;58.00;;;;;;5053828;28;20178;-63
2021/06/25 11:35:54;;;;;;;9.63;8.63;;;21.10;58.00;;;;;;5053132;28;20187;-62
2021/06/25 11:38:55;;;;;;;9.95;8.57;;;21.10;58.60;;;;;;5053714;28;20179;-63
2021/06/25 11:41:21;;;;;;;9.30;8.30;;;21.10;57.90;;;;;;5053782;28;20190;-62
2021/06/25 11:43:50;;;;;;;10.00;8.85;;;21.20;57.90;;;;;;5052879;28;20176;-62
2021/06/25 11:46:16;;;;;;;10.43;7.80;;;21.20;57.90;;;;;;5053584;28;20212;-62
2021/06/25 11:48:43;;;;;;;8.13;7.35;;;21.20;57.90;;;;;;5052487;28;20199;-61
2021/06/25 11:51:08;;;;;;;9.30;7.68;;;21.20;57.90;;;;;;5052906;28;20179;-61
2021/06/25 11:53:34;;;;;;;8.05;7.22;;;21.30;57.90;;;;;;5052913;28;20542;-61
2021/06/25 11:55:59;;;;;;;9.02;8.13;;;21.30;57.90;;;;;;5035139;28;20232;-62
2021/06/25 11:58:25;;;;;;;8.73;7.82;;;21.40;57.90;;;;;;5053485;28;20203;-62
2021/06/25 12:01:03;;;;;;;9.68;7.22;;;21.40;57.90;;;;;;5053217;28;20540;-63
2021/06/25 12:03:47;;;;;;;8.13;7.38;;;21.40;57.90;;;;;;5052672;28;20172;-63
2021/06/25 12:06:12;;;;;;;8.15;7.32;;;21.40;57.80;;;;;;5053491;28;20167;-63
2021/06/25 12:09:01;;;;;;;9.60;8.48;;;21.50;57.80;;;;;;5052840;28;20579;-63
2021/06/25 12:11:28;;;;;;;10.55;8.30;;;21.50;57.80;;;;;;5052757;28;20175;-65
2021/06/25 12:13:58;;;;;;;8.95;7.95;;;21.40;57.70;;;;;;5052722;28;20228;-64
2021/06/25 12:16:23;;;;;;;9.05;7.78;;;21.50;57.80;;;;;;5053061;28;20278;-64
2021/06/25 12:18:49;;;;;;;10.25;8.23;;;21.40;57.90;;;;;;5051921;28;20284;-63
2021/06/25 12:21:15;;;;;;;7.60;6.90;;;21.50;57.80;;;;;;5035511;28;20183;-63
2021/06/25 12:23:41;;;;;;;8.23;7.40;;;21.50;57.70;;;;;;5051879;28;20202;-63
2021/06/25 12:26:15;;;;;;;13.63;8.68;;;21.50;57.60;;;;;;5052918;28;20630;-63
2021/06/25 12:28:41;;;;;;;8.65;7.75;;;21.50;57.60;;;;;;5052487;28;20254;-63
2021/06/25 12:31:21;;;;;;;8.70;7.18;;;21.50;57.60;;;;;;5052130;28;20542;-63
2021/06/25 12:33:52;;;;;;;9.00;7.85;;;21.50;57.60;;;;;;5051030;28;20189;-64
2021/06/25 12:36:17;;;;;;;9.05;7.68;;;21.50;57.60;;;;;;5052827;28;20175;-64
2021/06/25 12:38:46;;;;;;;8.75;7.15;;;21.50;57.70;;;;;;5051722;28;20241;-64
2021/06/25 12:41:13;;;;;;;8.85;7.72;;;21.50;57.70;;;;;;5052504;28;20189;-63
2021/06/25 12:43:43;;;;;;;8.23;7.47;;;21.50;57.70;;;;;;5052290;28;20171;-64
2021/06/25 12:46:16;;;;;;;8.57;7.78;;;21.40;57.60;;;;;;5051770;28;20507;-64
2021/06/25 12:48:49;;;;;;;9.85;7.47;;;21.40;57.70;;;;;;5034528;28;20281;-63
2021/06/25 12:51:26;;;;;;;8.82;7.88;;;21.50;57.70;;;;;;5054764;28;20178;-64
2021/06/25 12:54:00;;;;;;;8.15;7.35;;;21.40;57.70;;;;;;5055079;28;20568;-63
2021/06/25 12:56:32;;;;;;;8.25;7.45;;;21.40;57.80;;;;;;5056948;28;20324;-63
2021/06/25 12:59:00;;;;;;;8.15;7.30;;;21.40;57.80;;;;;;5052676;28;20633;-64
2021/06/25 13:01:34;;;;;;;8.15;7.45;;;21.40;57.80;;;;;;5072212;28;20255;-64